createdAt,value
2022-09-18T00:01:42.297Z,76.71
2022-09-18T00:04:14.964Z,76.31
2022-09-18T00:06:45.741Z,76.96
2022-09-18T00:09:16.112Z,77.12
2022-09-18T00:11:47.826Z,76.18
2022-09-18T00:14:18.766Z,78.16
2022-09-18T00:16:47.449Z,77.38
2022-09-18T00:19:17.863Z,76.65
2022-09-18T00:21:49.082Z,77.97
2022-09-18T00:24:18.604Z,78.50
2022-09-18T00:26:47.869Z,79.79
2022-09-18T00:29:17.437Z,79.47
2022-09-18T00:31:46.778Z,81.08
2022-09-18T00:34:17.796Z,80.45
2022-09-18T00:36:46.544Z,80.95
2022-09-18T00:39:15.243Z,81.92
2022-09-18T00:41:44.694Z,81.58
2022-09-18T00:44:35.431Z,80.71
2022-09-18T00:47:28.115Z,81.00
2022-09-18T00:50:04.232Z,81.48
2022-09-18T00:52:44.737Z,81.67
2022-09-18T00:55:14.828Z,81.59
2022-09-18T00:57:47.592Z,81.98
2022-09-18T01:00:16.498Z,81.31
2022-09-18T01:02:48.625Z,81.92
2022-09-18T01:05:25.059Z,80.29
2022-09-18T01:08:08.274Z,82.08
2022-09-18T01:10:56.556Z,81.65
2022-09-18T01:13:36.970Z,80.97
2022-09-18T01:16:13.476Z,82.17
2022-09-18T01:18:50.506Z,82.78
2022-09-18T01:21:28.613Z,81.26
2022-09-18T01:24:22.214Z,81.38
2022-09-18T01:27:01.207Z,81.73
2022-09-18T01:29:41.405Z,80.62
2022-09-18T01:32:20.020Z,79.43
2022-09-18T01:34:57.148Z,79.70
2022-09-18T01:37:33.893Z,79.59
2022-09-18T01:40:12.758Z,79.24
2022-09-18T01:42:43.788Z,79.73
2022-09-18T01:45:19.572Z,80.46
2022-09-18T01:47:52.757Z,80.90
2022-09-18T01:50:23.531Z,79.88
2022-09-18T01:53:00.293Z,80.67
2022-09-18T01:55:34.069Z,80.22
2022-09-18T01:58:07.367Z,79.26
2022-09-18T02:00:41.005Z,78.31
2022-09-18T02:03:15.172Z,77.02
2022-09-18T02:05:49.723Z,78.30
2022-09-18T02:08:23.748Z,78.52
2022-09-18T02:11:01.259Z,79.27
2022-09-18T02:13:35.823Z,77.76
2022-09-18T02:16:11.720Z,78.95
2022-09-18T02:18:45.824Z,78.64
2022-09-18T02:21:18.639Z,78.88
2022-09-18T02:23:47.778Z,77.38
2022-09-18T02:26:20.630Z,76.81
2022-09-18T02:28:51.655Z,76.55
2022-09-18T02:31:22.288Z,75.88
2022-09-18T02:33:53.479Z,75.84
2022-09-18T02:36:52.149Z,76.12
2022-09-18T02:39:34.057Z,75.87
2022-09-18T02:42:14.047Z,75.46
2022-09-18T02:44:50.267Z,76.18
2022-09-18T02:47:32.890Z,77.39
2022-09-18T02:50:15.742Z,77.43
2022-09-18T02:52:49.735Z,76.64
2022-09-18T02:55:26.021Z,76.10
2022-09-18T02:58:00.530Z,78.07
2022-09-18T03:00:32.112Z,77.18
2022-09-18T03:03:04.765Z,77.49
2022-09-18T03:05:43.477Z,77.24
2022-09-18T03:08:12.001Z,75.47
2022-09-18T03:10:40.419Z,74.85
2022-09-18T03:13:09.295Z,74.32
2022-09-18T03:15:37.814Z,72.85
2022-09-18T03:18:07.554Z,72.31
2022-09-18T03:20:36.107Z,71.04
2022-09-18T03:23:07.250Z,70.41
2022-09-18T03:25:35.970Z,71.17
2022-09-18T03:28:05.741Z,71.85
2022-09-18T03:30:40.054Z,72.28
2022-09-18T03:33:10.868Z,73.37
2022-09-18T03:35:39.308Z,72.60
2022-09-18T03:38:08.062Z,73.28
2022-09-18T03:40:36.727Z,72.31
2022-09-18T03:43:07.375Z,72.23
2022-09-18T03:45:35.783Z,73.96
2022-09-18T03:48:06.232Z,73.17
2022-09-18T03:50:37.688Z,72.92
2022-09-18T03:53:09.520Z,74.35
2022-09-18T03:55:50.760Z,74.79
2022-09-18T03:58:38.625Z,72.81
2022-09-18T04:01:33.035Z,74.07
2022-09-18T04:04:20.423Z,74.25
2022-09-18T04:07:13.824Z,74.55
2022-09-18T04:09:48.012Z,74.36
2022-09-18T04:12:17.184Z,74.50
2022-09-18T04:14:48.789Z,73.73
2022-09-18T04:17:17.307Z,74.09
2022-09-18T04:19:48.111Z,73.18
2022-09-18T04:22:20.164Z,73.20
2022-09-18T04:24:50.505Z,73.32
2022-09-18T04:27:19.674Z,74.61
2022-09-18T04:29:51.361Z,73.76
2022-09-18T04:32:21.112Z,72.99
2022-09-18T04:34:49.522Z,73.69
2022-09-18T04:37:17.992Z,73.84
2022-09-18T04:39:49.364Z,73.68
2022-09-18T04:42:17.925Z,73.07
2022-09-18T04:44:47.347Z,73.17
2022-09-18T04:47:17.060Z,72.96
2022-09-18T04:49:46.011Z,73.21
2022-09-18T04:52:14.443Z,73.47
2022-09-18T04:54:43.521Z,72.52
2022-09-18T04:57:13.356Z,73.17
2022-09-18T04:59:44.778Z,72.93
2022-09-18T05:02:13.256Z,73.50
2022-09-18T05:04:41.671Z,73.64
2022-09-18T05:07:21.129Z,74.07
2022-09-18T05:09:50.903Z,73.59
2022-09-18T05:12:20.979Z,73.66
2022-09-18T05:14:49.710Z,74.11
2022-09-18T05:17:20.429Z,73.88
2022-09-18T05:20:01.353Z,71.76
2022-09-18T05:22:36.838Z,72.98
2022-09-18T05:25:10.884Z,71.34
2022-09-18T05:27:40.790Z,70.75
2022-09-18T05:30:11.787Z,70.19
2022-09-18T05:33:00.767Z,69.86
2022-09-18T05:35:32.994Z,69.23
2022-09-18T05:38:02.682Z,68.53
2022-09-18T05:40:35.677Z,67.89
2022-09-18T05:43:07.411Z,66.81
2022-09-18T05:45:38.101Z,68.50
2022-09-18T05:48:18.177Z,67.90
2022-09-18T05:50:48.481Z,68.37
2022-09-18T05:53:20.173Z,66.64
2022-09-18T05:56:01.429Z,67.25
2022-09-18T05:58:33.702Z,66.96
2022-09-18T06:01:04.708Z,67.63
2022-09-18T06:03:53.658Z,66.73
2022-09-18T06:06:24.081Z,65.82
2022-09-18T06:08:52.464Z,66.23
2022-09-18T06:11:22.422Z,65.66
2022-09-18T06:13:52.724Z,64.90
2022-09-18T06:16:21.823Z,64.22
2022-09-18T06:18:59.176Z,66.97
2022-09-18T06:21:27.697Z,67.42
2022-09-18T06:23:56.857Z,66.34
2022-09-18T06:26:54.664Z,64.90
2022-09-18T06:29:25.678Z,66.79
2022-09-18T06:32:14.568Z,65.39
2022-09-18T06:34:43.871Z,63.97
2022-09-18T06:37:16.711Z,64.29
2022-09-18T06:39:46.450Z,64.15
2022-09-18T06:42:30.417Z,63.52
2022-09-18T06:45:16.280Z,62.19
2022-09-18T06:47:46.678Z,63.17
2022-09-18T06:50:15.817Z,62.92
2022-09-18T06:52:46.870Z,60.63
2022-09-18T06:55:15.735Z,60.65
2022-09-18T06:57:54.165Z,60.06
2022-09-18T07:00:24.763Z,60.15
2022-09-18T07:02:58.878Z,58.85
2022-09-18T07:05:56.338Z,59.49
2022-09-18T07:08:37.537Z,57.55
2022-09-18T07:11:15.969Z,58.99
2022-09-18T07:13:45.230Z,59.51
2022-09-18T07:16:15.484Z,59.82
2022-09-18T07:18:46.758Z,57.86
2022-09-18T07:21:15.318Z,59.02
2022-09-18T07:23:45.778Z,60.32
2022-09-18T07:26:14.573Z,60.28
2022-09-18T07:28:42.987Z,60.30
2022-09-18T07:31:20.338Z,57.90
2022-09-18T07:33:52.685Z,58.63
2022-09-18T07:36:23.005Z,57.00
2022-09-18T07:38:52.688Z,57.07
2022-09-18T07:41:22.489Z,56.52
2022-09-18T07:43:51.711Z,55.95
2022-09-18T07:46:22.060Z,53.62
2022-09-18T07:48:54.108Z,55.35
2022-09-18T07:51:27.625Z,55.42
2022-09-18T07:53:58.580Z,54.45
2022-09-18T07:56:46.862Z,54.22
2022-09-18T07:59:21.855Z,53.22
2022-09-18T08:01:58.575Z,52.98
2022-09-18T08:04:29.613Z,53.54
2022-09-18T08:07:18.538Z,52.92
2022-09-18T08:10:02.349Z,54.32
2022-09-18T08:12:40.869Z,52.32
2022-09-18T08:15:30.168Z,52.53
2022-09-18T08:18:17.201Z,53.40
2022-09-18T08:20:59.840Z,51.92
2022-09-18T08:23:42.412Z,50.97
2022-09-18T08:26:11.489Z,53.20
2022-09-18T08:28:39.936Z,52.31
2022-09-18T08:31:09.702Z,50.98
2022-09-18T08:33:41.513Z,51.10
2022-09-18T08:36:24.673Z,49.96
2022-09-18T08:39:01.566Z,50.41
2022-09-18T08:42:17.503Z,51.47
2022-09-18T08:44:52.653Z,51.26
2022-09-18T08:47:26.826Z,51.93
2022-09-18T08:50:04.882Z,50.37
2022-09-18T08:52:36.104Z,50.85
2022-09-18T08:55:27.454Z,50.26
2022-09-18T08:58:16.443Z,50.11
2022-09-18T09:00:51.796Z,49.55
2022-09-18T09:03:30.786Z,48.83
2022-09-18T09:06:06.275Z,48.56
2022-09-18T09:09:03.856Z,49.66
2022-09-18T09:11:49.670Z,48.37
2022-09-18T09:14:55.721Z,49.32
2022-09-18T09:17:39.021Z,49.27
2022-09-18T09:20:22.717Z,47.88
2022-09-18T09:23:03.384Z,47.99
2022-09-18T09:25:39.976Z,46.63
2022-09-18T09:28:27.360Z,46.32
2022-09-18T09:31:39.433Z,46.23
2022-09-18T09:34:25.188Z,46.88
2022-09-18T09:37:05.010Z,44.90
2022-09-18T09:39:43.252Z,45.19
2022-09-18T09:42:17.132Z,44.68
2022-09-18T09:44:54.848Z,45.23
2022-09-18T09:47:32.230Z,45.20
2022-09-18T09:50:14.216Z,44.62
2022-09-18T09:52:48.044Z,44.13
2022-09-18T09:55:26.511Z,44.96
2022-09-18T09:58:07.801Z,45.11
2022-09-18T10:00:45.788Z,42.82
2022-09-18T10:03:29.805Z,42.34
2022-09-18T10:06:10.594Z,42.04
2022-09-18T10:08:47.656Z,41.83
2022-09-18T10:11:18.850Z,42.48
2022-09-18T10:14:00.185Z,43.64
2022-09-18T10:16:35.357Z,42.56
2022-09-18T10:19:05.845Z,40.78
2022-09-18T10:21:38.842Z,39.90
2022-09-18T10:24:18.810Z,39.70
2022-09-18T10:26:55.629Z,39.36
2022-09-18T10:29:25.134Z,38.98
2022-09-18T10:32:00.925Z,39.51
2022-09-18T10:34:41.709Z,39.43
2022-09-18T10:37:17.258Z,40.06
2022-09-18T10:39:52.344Z,39.58
2022-09-18T10:42:26.876Z,39.10
2022-09-18T10:45:06.772Z,37.59
2022-09-18T10:47:38.422Z,36.60
2022-09-18T10:50:19.691Z,36.72
2022-09-18T10:52:54.128Z,36.09
2022-09-18T10:55:29.340Z,36.24
2022-09-18T10:58:08.349Z,36.47
2022-09-18T11:00:40.582Z,34.22
2022-09-18T11:03:22.083Z,34.99
2022-09-18T11:05:56.871Z,35.91
2022-09-18T11:08:30.969Z,35.17
2022-09-18T11:11:07.201Z,34.99
2022-09-18T11:13:46.293Z,34.70
2022-09-18T11:16:24.898Z,34.33
2022-09-18T11:19:07.532Z,34.51
2022-09-18T11:21:48.164Z,33.57
2022-09-18T11:24:24.024Z,33.09
2022-09-18T11:26:57.360Z,33.11
2022-09-18T11:29:32.396Z,33.27
2022-09-18T11:32:11.590Z,32.67
2022-09-18T11:34:47.536Z,33.57
2022-09-18T11:37:27.112Z,33.44
2022-09-18T11:40:03.695Z,33.34
2022-09-18T11:42:33.341Z,35.98
2022-09-18T11:45:28.699Z,32.01
2022-09-18T11:48:05.249Z,31.48
2022-09-18T11:50:38.037Z,31.56
2022-09-18T11:53:16.088Z,31.75
2022-09-18T11:55:49.711Z,31.45
2022-09-18T11:58:24.185Z,32.71
2022-09-18T12:01:05.057Z,32.99
2022-09-18T12:03:40.634Z,33.29
2022-09-18T12:06:19.201Z,33.16
2022-09-18T12:08:53.849Z,33.38
2022-09-18T12:11:32.755Z,33.88
2022-09-18T12:14:12.775Z,33.67
2022-09-18T12:16:52.652Z,34.05
2022-09-18T12:19:31.029Z,34.00
2022-09-18T12:22:06.381Z,33.66
2022-09-18T12:24:35.120Z,32.93
2022-09-18T12:27:25.977Z,32.76
2022-09-18T12:30:09.721Z,32.25
2022-09-18T12:32:57.351Z,31.66
2022-09-18T12:35:36.545Z,32.28
2022-09-18T12:38:19.536Z,31.68
2022-09-18T12:41:05.956Z,32.23
2022-09-18T12:44:13.586Z,32.26
2022-09-18T12:46:59.872Z,31.80
2022-09-18T12:50:01.516Z,31.55
2022-09-18T12:52:50.818Z,32.44
2022-09-18T12:55:54.442Z,32.47
2022-09-18T12:58:46.698Z,32.67
2022-09-18T13:01:26.502Z,32.43
2022-09-18T13:04:03.897Z,32.38
2022-09-18T13:06:40.049Z,31.45
2022-09-18T13:09:23.811Z,31.11
2022-09-18T13:11:58.720Z,31.44
2022-09-18T13:14:34.275Z,32.04
2022-09-18T13:17:09.379Z,32.06
2022-09-18T13:19:45.334Z,32.94
2022-09-18T13:22:19.568Z,32.50
2022-09-18T13:24:52.995Z,32.26
2022-09-18T13:27:24.320Z,32.71
2022-09-18T13:29:59.114Z,31.82
2022-09-18T13:32:45.730Z,31.22
2022-09-18T13:35:25.400Z,30.83
2022-09-18T13:38:16.165Z,30.51
2022-09-18T13:40:48.050Z,30.60
2022-09-18T13:43:31.812Z,32.03
2022-09-18T13:46:06.794Z,32.87
2022-09-18T13:48:43.345Z,32.36
2022-09-18T13:51:21.988Z,33.00
2022-09-18T13:54:17.827Z,32.97
2022-09-18T13:57:18.723Z,32.54
2022-09-18T13:59:54.187Z,32.69
2022-09-18T14:02:28.756Z,32.14
2022-09-18T14:05:28.262Z,32.37
2022-09-18T14:08:04.611Z,32.52
2022-09-18T14:10:59.532Z,32.53
2022-09-18T14:13:37.301Z,32.79
2022-09-18T14:16:24.644Z,32.88
2022-09-18T14:18:59.617Z,32.92
2022-09-18T14:21:32.145Z,32.21
2022-09-18T14:24:06.510Z,32.05
2022-09-18T14:26:57.364Z,32.10
2022-09-18T14:29:31.484Z,32.24
2022-09-18T14:32:03.014Z,31.05
2022-09-18T14:34:38.119Z,31.67
2022-09-18T14:37:25.573Z,31.02
2022-09-18T14:39:55.509Z,31.34
2022-09-18T14:42:33.233Z,31.22
2022-09-18T14:45:10.765Z,31.63
2022-09-18T14:47:40.594Z,31.73
2022-09-18T14:50:23.868Z,32.55
2022-09-18T14:52:52.493Z,32.17
2022-09-18T14:55:22.842Z,32.48
2022-09-18T14:57:57.020Z,32.71
2022-09-18T15:00:28.156Z,33.40
2022-09-18T15:02:59.435Z,33.21
2022-09-18T15:05:29.462Z,33.29
2022-09-18T15:08:03.292Z,32.83
2022-09-18T15:10:34.649Z,32.82
2022-09-18T15:13:08.518Z,31.93
2022-09-18T15:15:40.034Z,31.81
2022-09-18T15:18:20.492Z,32.23
2022-09-18T15:20:51.525Z,32.04
2022-09-18T15:23:22.018Z,32.59
2022-09-18T15:25:53.342Z,32.45
2022-09-18T15:28:26.655Z,32.43
2022-09-18T15:31:00.210Z,32.97
2022-09-18T15:33:29.255Z,33.78
2022-09-18T15:35:58.392Z,33.66
2022-09-18T15:38:35.181Z,33.65
2022-09-18T15:41:22.451Z,33.67
2022-09-18T15:43:52.534Z,34.04
2022-09-18T15:46:29.752Z,34.43
2022-09-18T15:49:00.670Z,33.99
2022-09-18T15:51:30.854Z,33.60
2022-09-18T15:54:05.755Z,33.58
2022-09-18T15:56:36.536Z,33.67
2022-09-18T15:59:08.998Z,33.53
2022-09-18T16:01:40.974Z,33.79
2022-09-18T16:04:20.329Z,33.99
2022-09-18T16:06:56.875Z,34.37
2022-09-18T16:09:33.730Z,34.58
2022-09-18T16:12:02.631Z,34.79
2022-09-18T16:14:46.207Z,34.92
2022-09-18T16:17:39.662Z,35.62
2022-09-18T16:20:39.019Z,35.85
2022-09-18T16:23:19.690Z,36.39
2022-09-18T16:26:06.394Z,36.34
2022-09-18T16:28:37.197Z,36.77
2022-09-18T16:31:07.722Z,36.87
2022-09-18T16:33:36.677Z,37.29
2022-09-18T16:36:10.986Z,36.89
2022-09-18T16:38:39.811Z,35.95
2022-09-18T16:41:10.720Z,36.15
2022-09-18T16:43:39.104Z,35.98
2022-09-18T16:46:09.358Z,35.42
2022-09-18T16:48:38.356Z,35.43
2022-09-18T16:51:07.040Z,35.28
2022-09-18T16:53:38.270Z,35.08
2022-09-18T16:56:12.302Z,35.16
2022-09-18T16:58:42.249Z,35.24
2022-09-18T17:01:12.272Z,35.21
2022-09-18T17:03:40.677Z,35.61
2022-09-18T17:06:09.093Z,34.98
2022-09-18T17:08:38.179Z,34.78
2022-09-18T17:11:06.619Z,34.76
2022-09-18T17:13:34.954Z,35.14
2022-09-18T17:16:03.555Z,34.73
2022-09-18T17:18:33.372Z,34.91
2022-09-18T17:21:03.269Z,34.58
2022-09-18T17:23:32.596Z,34.60
2022-09-18T17:26:06.517Z,34.34
2022-09-18T17:28:35.229Z,34.63
2022-09-18T17:31:09.575Z,34.63
2022-09-18T17:33:40.998Z,34.35
2022-09-18T17:36:11.222Z,35.97
2022-09-18T17:38:41.031Z,36.38
2022-09-18T17:41:13.058Z,35.96
2022-09-18T17:43:42.711Z,36.40
2022-09-18T17:46:13.714Z,36.39
2022-09-18T17:48:44.687Z,36.47
2022-09-18T17:51:16.712Z,35.85
2022-09-18T17:53:48.537Z,36.29
2022-09-18T17:56:18.635Z,36.39
2022-09-18T17:58:48.219Z,36.32
2022-09-18T18:01:18.248Z,35.73
2022-09-18T18:03:48.536Z,35.62
2022-09-18T18:06:21.639Z,35.82
2022-09-18T18:08:51.926Z,36.17
2022-09-18T18:11:22.754Z,35.99
2022-09-18T18:13:52.685Z,36.60
2022-09-18T18:16:23.641Z,36.59
2022-09-18T18:18:57.937Z,35.98
2022-09-18T18:21:28.311Z,37.27
2022-09-18T18:23:57.691Z,37.84
2022-09-18T18:26:27.961Z,39.27
2022-09-18T18:28:56.955Z,39.28
2022-09-18T18:31:26.516Z,39.82
2022-09-18T18:33:57.105Z,40.03
2022-09-18T18:36:28.188Z,40.19
2022-09-18T18:38:59.407Z,40.09
2022-09-18T18:41:31.839Z,40.33
2022-09-18T18:44:05.664Z,40.18
2022-09-18T18:46:36.878Z,39.64
2022-09-18T18:49:10.179Z,39.64
2022-09-18T18:51:47.412Z,39.93
2022-09-18T18:54:17.613Z,39.55
2022-09-18T18:56:47.162Z,39.39
2022-09-18T18:59:17.547Z,39.67
2022-09-18T19:01:47.284Z,39.20
2022-09-18T19:04:19.963Z,39.86
2022-09-18T19:06:49.962Z,39.67
2022-09-18T19:09:20.969Z,39.76
2022-09-18T19:11:50.976Z,39.96
2022-09-18T19:14:21.705Z,39.94
2022-09-18T19:16:51.332Z,39.92
2022-09-18T19:19:24.579Z,39.93
2022-09-18T19:21:54.204Z,39.79
2022-09-18T19:24:22.822Z,40.13
2022-09-18T19:26:51.295Z,39.32
2022-09-18T19:29:22.487Z,38.66
2022-09-18T19:31:51.475Z,38.81
2022-09-18T19:34:23.886Z,38.33
2022-09-18T19:36:53.584Z,38.62
2022-09-18T19:39:24.595Z,37.73
2022-09-18T19:41:59.327Z,37.44
2022-09-18T19:44:34.357Z,38.57
2022-09-18T19:47:07.552Z,37.82
2022-09-18T19:49:40.145Z,37.21
2022-09-18T19:52:18.040Z,36.81
2022-09-18T19:54:46.837Z,37.20
2022-09-18T19:57:16.045Z,37.17
2022-09-18T19:59:44.846Z,37.33
2022-09-18T20:02:14.868Z,37.51
2022-09-18T20:04:45.188Z,37.99
2022-09-18T20:07:14.142Z,38.25
2022-09-18T20:09:42.688Z,38.39
2022-09-18T20:12:11.582Z,37.84
2022-09-18T20:14:40.028Z,38.79
2022-09-18T20:17:08.643Z,38.81
2022-09-18T20:19:37.915Z,39.01
2022-09-18T20:22:08.305Z,39.01
2022-09-18T20:24:36.719Z,38.24
2022-09-18T20:27:05.754Z,38.41
2022-09-18T20:29:34.452Z,38.67
2022-09-18T20:32:03.556Z,38.58
2022-09-18T20:34:32.207Z,38.93
2022-09-18T20:37:00.573Z,38.90
2022-09-18T20:39:30.401Z,38.67
2022-09-18T20:42:00.693Z,38.79
2022-09-18T20:44:29.889Z,39.11
2022-09-18T20:46:58.315Z,39.51
2022-09-18T20:49:27.099Z,40.18
2022-09-18T20:51:55.694Z,39.92
2022-09-18T20:54:24.436Z,40.62
2022-09-18T20:56:54.630Z,39.96
2022-09-18T20:59:23.333Z,39.22
2022-09-18T21:01:52.696Z,39.93
2022-09-18T21:04:21.931Z,39.84
2022-09-18T21:06:56.192Z,39.78
2022-09-18T21:09:27.033Z,39.72
2022-09-18T21:11:57.350Z,39.54
2022-09-18T21:14:27.515Z,39.75
2022-09-18T21:16:56.077Z,39.35
2022-09-18T21:19:26.282Z,38.89
2022-09-18T21:21:55.135Z,38.92
2022-09-18T21:24:23.785Z,39.17
2022-09-18T21:26:52.208Z,38.94
2022-09-18T21:29:25.204Z,38.68
2022-09-18T21:31:55.668Z,38.29
2022-09-18T21:34:26.889Z,38.48
2022-09-18T21:36:58.823Z,37.94
2022-09-18T21:39:29.272Z,38.36
2022-09-18T21:41:58.753Z,37.66
2022-09-18T21:44:30.293Z,37.70
2022-09-18T21:47:02.125Z,37.29
2022-09-18T21:49:31.378Z,37.09
2022-09-18T21:52:02.309Z,37.10
2022-09-18T21:54:31.931Z,36.75
2022-09-18T21:57:00.782Z,37.36
2022-09-18T21:59:32.111Z,36.93
2022-09-18T22:02:03.194Z,36.89
2022-09-18T22:04:33.957Z,36.84
2022-09-18T22:07:04.026Z,36.65
2022-09-18T22:09:36.611Z,36.57
2022-09-18T22:12:05.795Z,36.35
2022-09-18T22:14:38.359Z,36.54
2022-09-18T22:17:08.865Z,36.81
2022-09-18T22:19:41.281Z,36.53
2022-09-18T22:22:10.811Z,36.34
2022-09-18T22:24:40.008Z,36.24
2022-09-18T22:27:08.919Z,36.36
2022-09-18T22:29:41.156Z,36.14
2022-09-18T22:32:11.129Z,36.12
2022-09-18T22:34:41.608Z,35.66
2022-09-18T22:37:11.372Z,36.08
2022-09-18T22:39:39.749Z,36.00
2022-09-18T22:42:08.088Z,36.16
2022-09-18T22:44:38.009Z,36.29
2022-09-18T22:47:06.914Z,36.13
2022-09-18T22:49:35.640Z,35.94
2022-09-18T22:52:04.230Z,35.46
2022-09-18T22:54:32.770Z,35.53
2022-09-18T22:57:01.096Z,35.60
2022-09-18T22:59:30.030Z,35.92
2022-09-18T23:02:03.646Z,36.20
2022-09-18T23:04:33.672Z,36.34
2022-09-18T23:07:03.309Z,36.22
2022-09-18T23:09:32.024Z,36.47
2022-09-18T23:12:00.963Z,36.03
2022-09-18T23:14:31.443Z,35.78
2022-09-18T23:17:01.843Z,35.83
2022-09-18T23:19:33.698Z,36.16
2022-09-18T23:22:02.493Z,35.89
2022-09-18T23:24:31.699Z,35.41
2022-09-18T23:27:00.434Z,35.47
2022-09-18T23:29:31.853Z,35.30
2022-09-18T23:32:01.757Z,35.81
2022-09-18T23:34:33.648Z,35.40
2022-09-18T23:37:02.413Z,35.41
2022-09-18T23:39:32.635Z,35.59
2022-09-18T23:42:03.139Z,35.48
2022-09-18T23:44:33.230Z,36.09
2022-09-18T23:47:03.465Z,35.80
2022-09-18T23:49:32.336Z,35.51
2022-09-18T23:52:01.547Z,35.22
2022-09-18T23:54:33.324Z,35.22
2022-09-18T23:57:02.259Z,35.72
2022-09-18T23:59:30.742Z,35.05
